Time;durP1;ratioP1;P1;durP2;ratioP2;P2;SDS_P1;SDS_P2;PMS_P1;PMS_P2;Temp;Humidity;BMP_temperature;BMP_pressure;BME280_temperature;BME280_humidity;BME280_pressure;Samples;Min_cycle;Max_cycle;Signal;HPM_P1;HPM_P2
2023/05/23 00:00:58;;;;;;;7.70;4.50;;;;;;;10.59;73.03;100546.33;104234;275;39038;-72
2023/05/23 00:03:32;;;;;;;5.70;4.40;;;;;;;10.54;73.08;100546.84;104174;275;38256;-72
2023/05/23 00:06:09;;;;;;;6.00;4.30;;;;;;;10.51;73.17;100545.02;104161;275;39074;-72
2023/05/23 00:08:45;;;;;;;8.50;4.60;;;;;;;10.48;73.30;100546.02;104151;275;40012;-70
2023/05/23 00:11:22;;;;;;;8.20;4.60;;;;;;;10.46;73.34;100545.89;104158;276;38963;-70
2023/05/23 00:13:59;;;;;;;7.00;4.50;;;;;;;10.42;73.28;100546.73;104159;275;39373;-70
2023/05/23 00:16:33;;;;;;;6.10;4.30;;;;;;;10.38;73.44;100550.19;104165;275;39876;-72
2023/05/23 00:19:08;;;;;;;6.70;4.50;;;;;;;10.35;73.69;100544.72;104035;275;175274;-71
2023/05/23 00:21:43;;;;;;;6.20;4.50;;;;;;;10.32;73.72;100542.71;104140;275;39374;-71
2023/05/23 00:24:17;;;;;;;7.00;4.40;;;;;;;10.29;74.11;100538.27;104145;275;38470;-71
2023/05/23 00:26:51;;;;;;;4.70;4.00;;;;;;;10.27;74.32;100539.73;104134;276;38672;-74
2023/05/23 00:29:25;;;;;;;8.20;4.80;;;;;;;10.27;74.63;100540.25;104166;275;38566;-73
2023/05/23 00:31:59;;;;;;;5.80;4.00;;;;;;;10.24;74.39;100538.60;104179;263;39424;-72
2023/05/23 00:34:33;;;;;;;6.30;4.00;;;;;;;10.20;74.41;100536.48;104225;275;38534;-72
2023/05/23 00:37:08;;;;;;;6.90;4.60;;;;;;;10.15;74.38;100533.66;104253;275;38465;-69
2023/05/23 00:39:41;;;;;;;6.50;4.50;;;;;;;10.12;74.39;100536.02;104238;275;38286;-70
2023/05/23 00:42:15;;;;;;;5.30;4.40;;;;;;;10.12;74.54;100534.14;104162;275;38225;-71
2023/05/23 00:44:51;;;;;;;5.80;4.10;;;;;;;10.10;74.61;100529.27;104201;275;39559;-68
2023/05/23 00:47:25;;;;;;;7.70;4.50;;;;;;;10.09;74.54;100527.94;104189;276;38287;-71
2023/05/23 00:49:59;;;;;;;7.40;4.80;;;;;;;10.07;74.75;100530.80;104132;275;39864;-71
2023/05/23 00:52:34;;;;;;;9.70;4.80;;;;;;;10.01;74.73;100528.19;104162;275;39392;-71
2023/05/23 00:55:09;;;;;;;6.80;4.50;;;;;;;9.97;74.81;100527.28;104168;275;38492;-72
2023/05/23 00:57:44;;;;;;;6.30;4.10;;;;;;;9.94;74.86;100530.02;104138;275;38544;-72
2023/05/23 01:00:20;;;;;;;7.10;4.50;;;;;;;9.92;75.02;100527.98;104047;276;38250;-71
2023/05/23 01:02:54;;;;;;;5.80;4.00;;;;;;;9.91;74.93;100526.98;104050;276;39404;-72
2023/05/23 01:05:28;;;;;;;6.10;4.50;;;;;;;9.88;74.93;100528.63;104007;276;39208;-71
2023/05/23 01:08:02;;;;;;;5.70;4.00;;;;;;;9.84;74.93;100530.70;104056;276;39667;-68
2023/05/23 01:10:36;;;;;;;6.50;3.80;;;;;;;9.80;75.01;100528.38;104036;276;39102;-70
2023/05/23 01:13:18;;;;;;;7.70;4.20;;;;;;;9.78;75.05;100531.05;104077;276;40128;-70
2023/05/23 01:15:58;;;;;;;7.70;4.30;;;;;;;9.75;75.13;100534.98;104138;276;38901;-72
2023/05/23 01:18:37;;;;;;;5.90;4.40;;;;;;;9.73;75.20;100538.36;104142;276;38289;-72
2023/05/23 01:21:15;;;;;;;4.30;3.90;;;;;;;9.70;75.22;100538.98;104151;276;38706;-71
2023/05/23 01:24:35;;;;;;;5.30;4.00;;;;;;;9.66;75.13;100539.44;104105;276;38510;-71
2023/05/23 01:27:16;;;;;;;8.50;4.30;;;;;;;9.58;75.19;100537.61;104099;276;39836;-71
2023/05/23 01:29:51;;;;;;;5.50;4.00;;;;;;;9.53;75.17;100536.36;104175;276;38495;-71
2023/05/23 01:32:25;;;;;;;5.10;3.80;;;;;;;9.48;75.31;100536.89;104115;276;39457;-71
2023/05/23 01:35:00;;;;;;;7.50;4.10;;;;;;;9.46;75.29;100533.63;104092;276;38446;-70
2023/05/23 01:37:34;;;;;;;6.20;4.80;;;;;;;9.43;75.49;100532.48;104072;276;38392;-70
2023/05/23 01:40:11;;;;;;;7.30;4.30;;;;;;;9.42;75.66;100531.84;104081;276;38597;-71
2023/05/23 01:42:45;;;;;;;5.30;4.00;;;;;;;9.40;75.71;100529.80;104067;276;38534;-70
2023/05/23 01:45:19;;;;;;;5.90;4.10;;;;;;;9.37;75.67;100520.86;104096;276;38737;-70
2023/05/23 01:47:53;;;;;;;6.30;3.90;;;;;;;9.36;75.83;100522.63;104074;276;38332;-70
2023/05/23 01:50:27;;;;;;;5.20;4.00;;;;;;;9.34;75.81;100518.67;104104;276;38451;-71
2023/05/23 01:53:02;;;;;;;6.80;4.20;;;;;;;9.33;75.98;100515.91;104098;276;38406;-70
2023/05/23 01:55:36;;;;;;;6.50;4.40;;;;;;;9.30;75.70;100517.75;104109;276;39180;-71
2023/05/23 01:58:14;;;;;;;5.90;4.20;;;;;;;9.24;75.55;100516.88;104196;276;38524;-71
2023/05/23 02:00:48;;;;;;;6.60;4.20;;;;;;;9.20;75.65;100513.34;104138;276;38926;-69
2023/05/23 02:03:22;;;;;;;6.90;4.40;;;;;;;9.17;75.76;100511.35;104119;276;39412;-72
2023/05/23 02:05:56;;;;;;;6.70;4.10;;;;;;;9.17;75.96;100509.10;104131;276;39726;-71
2023/05/23 02:08:30;;;;;;;7.80;4.50;;;;;;;9.14;76.09;100508.14;104230;276;39657;-69
2023/05/23 02:11:07;;;;;;;7.90;4.40;;;;;;;9.12;76.17;100504.56;104205;276;39942;-71
2023/05/23 02:13:41;;;;;;;6.90;4.40;;;;;;;9.06;76.05;100505.06;104132;276;39650;-72
2023/05/23 02:16:15;;;;;;;5.10;4.60;;;;;;;9.05;76.40;100501.80;104135;276;39273;-71
2023/05/23 02:18:51;;;;;;;7.40;4.20;;;;;;;9.04;76.45;100500.95;104098;276;38418;-69
2023/05/23 02:21:27;;;;;;;5.50;4.80;;;;;;;9.02;76.53;100502.75;104119;276;39592;-73
2023/05/23 02:24:02;;;;;;;5.80;4.10;;;;;;;9.02;76.78;100501.69;104125;276;39132;-72
2023/05/23 02:26:36;;;;;;;5.40;4.80;;;;;;;9.02;76.72;100499.44;104121;276;38459;-72
2023/05/23 02:29:12;;;;;;;5.50;4.70;;;;;;;8.99;76.70;100497.27;104108;276;38328;-70
2023/05/23 02:31:46;;;;;;;7.30;4.70;;;;;;;8.98;76.99;100494.33;104034;276;175327;-70
2023/05/23 02:34:20;;;;;;;5.20;4.30;;;;;;;8.99;77.32;100488.40;103972;277;39263;-70
2023/05/23 02:36:55;;;;;;;5.50;4.40;;;;;;;9.00;77.22;100489.07;104112;276;38249;-72
2023/05/23 02:39:30;;;;;;;8.30;5.00;;;;;;;9.01;77.32;100491.12;104082;276;38557;-71
2023/05/23 02:42:04;;;;;;;8.80;4.80;;;;;;;9.02;77.30;100487.27;104124;276;38249;-71
2023/05/23 02:44:39;;;;;;;5.70;5.00;;;;;;;9.00;77.33;100487.14;104087;276;38223;-71
2023/05/23 02:47:16;;;;;;;9.30;4.60;;;;;;;8.98;77.40;100486.16;104136;276;40351;-69
2023/05/23 02:49:53;;;;;;;7.90;5.10;;;;;;;8.96;77.44;100485.33;104052;276;38287;-71
2023/05/23 02:52:28;;;;;;;6.30;5.30;;;;;;;8.95;77.63;100483.66;104123;276;38950;-71
2023/05/23 02:55:02;;;;;;;6.90;4.80;;;;;;;8.96;77.75;100484.66;104033;276;39102;-73
2023/05/23 02:57:36;;;;;;;8.90;4.50;;;;;;;8.96;77.85;100485.70;104117;276;38675;-70
2023/05/23 03:00:14;;;;;;;6.30;5.30;;;;;;;8.97;77.95;100485.68;104079;276;38517;-70
2023/05/23 03:02:48;;;;;;;7.30;5.30;;;;;;;8.97;78.18;100483.41;104080;276;38441;-70
2023/05/23 03:05:25;;;;;;;6.50;4.70;;;;;;;8.97;78.41;100485.48;104040;276;38375;-70
2023/05/23 03:07:59;;;;;;;6.60;4.70;;;;;;;8.99;78.55;100480.20;104045;276;38734;-72
2023/05/23 03:10:33;;;;;;;7.30;4.90;;;;;;;9.05;78.58;100480.90;104005;276;38678;-71
2023/05/23 03:13:07;;;;;;;6.80;4.60;;;;;;;9.08;78.71;100478.58;104078;276;38941;-72
2023/05/23 03:15:46;;;;;;;9.30;5.40;;;;;;;9.08;78.79;100478.05;104004;276;38416;-71
2023/05/23 03:18:20;;;;;;;6.80;5.20;;;;;;;9.09;78.82;100481.67;104026;274;39650;-72
2023/05/23 03:20:54;;;;;;;8.40;5.80;;;;;;;9.13;79.00;100477.38;104065;276;40128;-72
2023/05/23 03:23:28;;;;;;;8.70;5.60;;;;;;;9.18;79.12;100481.58;104029;276;39389;-72
2023/05/23 03:26:02;;;;;;;7.70;5.10;;;;;;;9.24;79.31;100482.95;103986;268;172591;-72
2023/05/23 03:28:36;;;;;;;8.20;5.40;;;;;;;9.32;79.50;100481.67;104107;276;38362;-72
2023/05/23 03:31:10;;;;;;;8.00;5.80;;;;;;;9.39;79.59;100481.43;104151;276;38906;-70
2023/05/23 03:33:44;;;;;;;6.90;5.20;;;;;;;9.47;79.71;100478.24;103913;276;39096;-72
2023/05/23 03:36:19;;;;;;;7.00;5.40;;;;;;;9.55;79.87;100475.36;104066;276;38253;-69
2023/05/23 03:38:53;;;;;;;8.20;5.10;;;;;;;9.79;80.18;100475.95;104001;276;38393;-70
2023/05/23 03:41:27;;;;;;;7.10;4.70;;;;;;;10.57;81.56;100473.29;104022;276;38585;-73
2023/05/23 03:44:02;;;;;;;8.10;4.80;;;;;;;11.52;81.81;100475.92;104033;276;38879;-72
2023/05/23 03:46:36;;;;;;;6.50;4.90;;;;;;;12.51;80.95;100472.10;104026;276;38807;-73
2023/05/23 03:49:10;;;;;;;11.80;5.10;;;;;;;13.46;79.48;100467.94;104004;276;38728;-73
2023/05/23 03:51:44;;;;;;;9.20;5.50;;;;;;;14.38;77.28;100464.19;103575;276;597705;-72
2023/05/23 03:54:18;;;;;;;6.30;5.20;;;;;;;15.29;74.98;100467.02;103888;276;39655;-72
2023/05/23 03:56:52;;;;;;;5.50;4.90;;;;;;;16.17;71.49;100460.70;104055;276;38666;-71
2023/05/23 03:59:28;;;;;;;8.70;5.50;;;;;;;16.93;68.13;100458.90;104056;276;38378;-71
2023/05/23 04:02:02;;;;;;;6.50;5.10;;;;;;;17.63;65.95;100455.43;104079;276;38758;-73
2023/05/23 04:04:36;;;;;;;6.60;4.60;;;;;;;18.05;62.58;100452.09;104030;276;39234;-73
2023/05/23 04:07:10;;;;;;;5.50;4.80;;;;;;;18.30;60.56;100453.77;104111;276;38341;-69
2023/05/23 04:09:44;;;;;;;6.80;4.50;;;;;;;18.58;59.39;100449.49;104087;276;38348;-71
2023/05/23 04:12:20;;;;;;;6.80;4.90;;;;;;;18.51;57.65;100443.77;104064;276;39919;-72
2023/05/23 04:14:54;;;;;;;6.20;4.70;;;;;;;18.21;57.76;100444.86;104023;276;40262;-73
2023/05/23 04:17:30;;;;;;;5.60;5.10;;;;;;;17.87;57.75;100446.27;103897;276;40212;-74
2023/05/23 04:20:04;;;;;;;6.30;5.30;;;;;;;17.48;58.29;100447.38;104049;276;39894;-72
2023/05/23 04:22:38;;;;;;;6.90;5.10;;;;;;;17.10;58.75;100447.07;104055;276;38471;-73
2023/05/23 04:25:13;;;;;;;6.00;5.00;;;;;;;16.80;59.84;100445.98;104059;276;38562;-73
2023/05/23 04:27:50;;;;;;;5.60;5.00;;;;;;;16.60;60.95;100445.61;103434;276;902148;-75
2023/05/23 04:30:24;;;;;;;8.00;5.30;;;;;;;16.44;61.67;100448.68;104020;276;38475;-73
2023/05/23 04:33:00;;;;;;;9.80;5.20;;;;;;;16.31;62.33;100450.02;104072;276;38346;-70
2023/05/23 04:35:37;;;;;;;7.40;5.80;;;;;;;16.20;62.80;100449.59;104013;276;38537;-73
2023/05/23 04:38:12;;;;;;;8.20;5.30;;;;;;;16.12;63.40;100446.96;104070;276;39769;-71
2023/05/23 04:40:48;;;;;;;8.30;5.40;;;;;;;16.05;64.11;100444.91;104021;276;39692;-72
2023/05/23 04:43:25;;;;;;;7.40;5.20;;;;;;;16.02;64.33;100447.72;104074;276;39761;-72
2023/05/23 04:46:01;;;;;;;5.90;5.00;;;;;;;16.01;64.77;100450.73;104051;276;38256;-73
2023/05/23 04:48:35;;;;;;;5.40;4.60;;;;;;;16.01;65.33;100447.38;104058;276;38320;-70
2023/05/23 04:51:10;;;;;;;6.10;4.80;;;;;;;16.12;65.55;100447.60;104072;276;38328;-72
2023/05/23 04:53:44;;;;;;;7.50;5.20;;;;;;;16.63;67.28;100436.61;104098;276;39444;-73
2023/05/23 04:56:19;;;;;;;6.80;4.90;;;;;;;17.69;66.98;100434.90;104048;276;39469;-71
2023/05/23 04:58:54;;;;;;;7.80;4.90;;;;;;;19.04;66.35;100433.27;104037;276;39769;-70
2023/05/23 05:01:30;;;;;;;5.50;4.50;;;;;;;20.51;61.86;100427.41;104099;276;38237;-71
2023/05/23 05:04:07;;;;;;;4.60;4.10;;;;;;;21.76;57.60;100425.25;104089;276;38661;-71
2023/05/23 05:06:42;;;;;;;5.20;4.10;;;;;;;22.99;53.80;100429.60;104145;276;38691;-72
2023/05/23 05:09:21;;;;;;;6.00;3.50;;;;;;;24.17;48.64;100422.20;103815;276;39051;-70
2023/05/23 05:11:56;;;;;;;6.00;3.70;;;;;;;25.18;44.82;100419.23;104094;276;40215;-72
2023/05/23 05:14:31;;;;;;;6.30;4.20;;;;;;;25.98;41.54;100413.40;103949;276;174102;-72
2023/05/23 05:17:09;;;;;;;4.00;3.50;;;;;;;26.76;39.92;100409.07;104138;276;38296;-73
2023/05/23 05:19:44;;;;;;;7.30;3.60;;;;;;;27.42;38.69;100414.78;103798;276;38249;-72
2023/05/23 05:22:20;;;;;;;6.40;3.30;;;;;;;28.03;36.07;100410.86;104117;276;38237;-73
2023/05/23 05:24:56;;;;;;;7.40;3.30;;;;;;;28.53;34.40;100409.09;103934;276;171535;-74
2023/05/23 05:27:31;;;;;;;4.60;3.50;;;;;;;29.09;33.11;100405.14;104183;276;38708;-72
2023/05/23 05:30:12;;;;;;;5.90;3.30;;;;;;;29.81;32.63;100406.50;104167;276;38283;-73
2023/05/23 05:32:48;;;;;;;6.10;3.90;;;;;;;30.30;30.62;100405.46;104240;276;38275;-73
2023/05/23 05:35:24;;;;;;;4.70;3.00;;;;;;;30.82;30.15;100403.56;104080;276;174239;-73
2023/05/23 05:38:03;;;;;;;5.70;3.20;;;;;;;31.21;28.71;100406.73;104190;276;38297;-71
2023/05/23 05:40:43;;;;;;;5.30;3.30;;;;;;;31.57;27.72;100405.95;104195;276;39068;-71
2023/05/23 05:43:19;;;;;;;7.10;3.30;;;;;;;31.98;27.15;100408.39;104179;276;38287;-73
2023/05/23 05:45:53;;;;;;;4.20;3.10;;;;;;;32.25;26.32;100405.09;104171;276;38248;-72
2023/05/23 05:48:28;;;;;;;6.20;3.30;;;;;;;32.55;25.42;100404.93;104109;276;39683;-72
2023/05/23 05:51:02;;;;;;;7.20;3.30;;;;;;;32.63;24.63;100404.27;104137;276;38272;-73
2023/05/23 05:53:36;;;;;;;4.40;3.20;;;;;;;32.80;24.90;100406.88;104136;276;39545;-73
2023/05/23 05:56:12;;;;;;;4.80;3.10;;;;;;;33.17;24.53;100405.06;104092;276;38250;-74
2023/05/23 05:58:55;;;;;;;3.50;3.20;;;;;;;33.28;23.76;100405.76;104118;276;38253;-73
2023/05/23 06:04:53;;;;;;;4.60;2.90;;;;;;;33.91;21.81;100396.05;104158;275;38435;-76
2023/05/23 06:07:27;;;;;;;5.40;2.80;;;;;;;33.88;22.09;100395.17;104174;275;39347;-73
2023/05/23 06:10:01;;;;;;;3.60;2.70;;;;;;;33.83;22.21;100393.64;104156;275;38948;-73
2023/05/23 06:12:35;;;;;;;4.90;3.40;;;;;;;34.03;22.01;100392.23;104155;275;38269;-75
2023/05/23 06:15:13;;;;;;;8.20;3.30;;;;;;;34.26;21.53;100390.13;103526;275;883960;-73
2023/05/23 06:17:47;;;;;;;4.20;2.90;;;;;;;34.49;21.39;100385.58;104049;275;173951;-73
2023/05/23 06:20:22;;;;;;;5.60;3.00;;;;;;;34.79;21.31;100383.45;104149;275;39007;-75
2023/05/23 06:22:58;;;;;;;5.30;3.30;;;;;;;35.07;21.50;100383.58;104024;277;38763;-73
2023/05/23 06:25:32;;;;;;;4.10;2.80;;;;;;;35.28;20.70;100386.70;104154;275;38319;-73
2023/05/23 06:28:07;;;;;;;5.00;2.80;;;;;;;35.44;19.96;100385.27;104189;275;39469;-73
2023/05/23 06:30:41;;;;;;;8.30;3.90;;;;;;;35.60;19.73;100388.16;104208;275;38739;-73
2023/05/23 06:33:15;;;;;;;4.60;3.40;;;;;;;35.83;19.11;100381.77;104201;275;38240;-71
2023/05/23 06:35:50;;;;;;;4.70;2.70;;;;;;;36.00;18.68;100379.80;104169;275;38698;-72
2023/05/23 06:38:24;;;;;;;4.50;3.00;;;;;;;36.19;18.26;100379.33;104162;275;39820;-77
2023/05/23 06:40:59;;;;;;;6.90;2.60;;;;;;;36.30;18.27;100376.08;104146;275;38757;-75
2023/05/23 06:43:33;;;;;;;4.30;2.90;;;;;;;36.32;18.05;100370.78;104144;275;38500;-74
2023/05/23 06:46:08;;;;;;;3.70;2.50;;;;;;;36.36;17.83;100369.72;104182;275;38256;-73
2023/05/23 06:48:42;;;;;;;4.60;2.80;;;;;;;36.56;17.69;100366.17;104146;275;38592;-73
2023/05/23 06:51:16;;;;;;;5.50;2.70;;;;;;;36.63;17.53;100365.44;104171;275;38241;-74
2023/05/23 06:53:50;;;;;;;5.40;2.60;;;;;;;36.55;17.42;100365.52;104121;275;39668;-75
2023/05/23 06:56:24;;;;;;;3.40;2.30;;;;;;;36.50;17.20;100360.50;104163;275;38406;-74
2023/05/23 06:58:59;;;;;;;4.00;2.40;;;;;;;36.57;17.15;100359.44;104175;275;39014;-74
2023/05/23 07:01:33;;;;;;;2.40;2.20;;;;;;;36.66;17.17;100355.79;104193;275;39644;-76
2023/05/23 07:04:07;;;;;;;3.70;2.50;;;;;;;36.55;16.95;100351.48;104024;275;171234;-74
2023/05/23 07:06:42;;;;;;;4.40;2.30;;;;;;;36.52;17.39;100353.59;104201;275;39904;-75
2023/05/23 07:09:16;;;;;;;3.20;2.70;;;;;;;36.41;17.06;100347.09;104160;275;38363;-75
2023/05/23 07:11:50;;;;;;;2.70;2.40;;;;;;;36.51;17.31;100345.13;103760;279;188501;-72
2023/05/23 07:14:28;;;;;;;3.90;2.40;;;;;;;36.70;17.88;100341.27;104143;276;39400;-74
2023/05/23 07:17:03;;;;;;;4.60;2.50;;;;;;;36.78;17.08;100340.16;104174;275;38459;-75
2023/05/23 07:19:38;;;;;;;2.40;2.20;;;;;;;36.80;16.76;100337.98;104138;275;38483;-75
2023/05/23 07:22:12;;;;;;;3.80;2.60;;;;;;;37.03;17.32;100336.67;104204;275;38257;-73
2023/05/23 07:24:47;;;;;;;4.00;2.30;;;;;;;37.02;16.16;100334.96;104158;275;38223;-72
2023/05/23 07:27:21;;;;;;;3.70;2.30;;;;;;;36.91;16.12;100333.95;104141;275;38730;-73
2023/05/23 07:29:56;;;;;;;3.60;2.60;;;;;;;36.91;16.67;100331.42;104142;324;38726;-73
2023/05/23 07:32:30;;;;;;;4.10;2.30;;;;;;;36.82;16.21;100327.14;104199;275;38330;-70
2023/05/23 07:35:04;;;;;;;3.70;2.40;;;;;;;36.80;16.33;100325.27;104131;275;39650;-71
2023/05/23 07:37:38;;;;;;;3.90;2.20;;;;;;;36.81;16.54;100323.02;104193;275;38546;-70
2023/05/23 07:40:14;;;;;;;4.50;2.50;;;;;;;36.99;16.26;100318.70;104145;275;38351;-70
2023/05/23 07:42:49;;;;;;;7.90;2.80;;;;;;;37.01;16.68;100318.34;104192;275;38371;-70
2023/05/23 07:45:24;;;;;;;4.50;2.30;;;;;;;37.00;16.48;100314.45;104148;275;38256;-72
2023/05/23 07:47:58;;;;;;;3.60;2.30;;;;;;;37.21;16.22;100313.52;104136;275;39448;-70
2023/05/23 07:50:33;;;;;;;5.60;2.20;;;;;;;37.20;15.71;100313.42;104154;275;38352;-69
2023/05/23 07:53:08;;;;;;;3.40;2.50;;;;;;;37.09;15.56;100311.83;104164;275;38455;-72
2023/05/23 07:55:43;;;;;;;5.80;2.40;;;;;;;37.06;15.61;100310.83;104183;276;38477;-71
2023/05/23 07:58:17;;;;;;;3.10;2.00;;;;;;;36.98;15.86;100310.02;104167;275;39694;-71
2023/05/23 08:00:50;;;;;;;4.50;2.50;;;;;;;36.91;15.87;100303.45;104181;276;38287;-71
2023/05/23 08:03:26;;;;;;;4.90;2.40;;;;;;;37.05;16.02;100305.52;104168;275;38502;-71
2023/05/23 08:06:06;;;;;;;2.90;2.20;;;;;;;37.20;15.65;100304.05;104038;275;173820;-72
2023/05/23 08:08:42;;;;;;;3.00;2.10;;;;;;;37.20;15.72;100304.92;104186;275;38311;-71
2023/05/23 08:11:16;;;;;;;4.20;2.40;;;;;;;37.27;15.45;100313.71;104164;275;38745;-75
2023/05/23 08:13:50;;;;;;;6.20;2.10;;;;;;;37.29;15.61;100306.22;104123;275;39089;-74
2023/05/23 08:16:24;;;;;;;3.60;2.50;;;;;;;37.27;15.91;100305.02;104180;275;38479;-75
2023/05/23 08:18:59;;;;;;;3.30;2.40;;;;;;;37.39;15.90;100300.48;104156;275;38496;-76
2023/05/23 08:21:33;;;;;;;4.30;2.40;;;;;;;37.42;15.79;100296.33;104183;275;38095;-75
2023/05/23 08:24:07;;;;;;;2.70;2.10;;;;;;;37.60;15.68;100294.12;104199;275;39422;-77
2023/05/23 08:26:41;;;;;;;3.90;2.30;;;;;;;37.68;15.63;100292.45;104164;275;39405;-74
2023/05/23 08:29:19;;;;;;;4.80;2.20;;;;;;;37.78;16.25;100290.36;104154;275;38231;-74
2023/05/23 08:31:53;;;;;;;4.50;2.60;;;;;;;38.11;15.72;100290.69;104189;276;38226;-77
2023/05/23 08:34:27;;;;;;;4.10;2.60;;;;;;;38.31;15.86;100287.89;104147;275;38493;-78
2023/05/23 08:37:01;;;;;;;3.50;2.10;;;;;;;38.41;15.22;100286.77;104170;276;38333;-75
2023/05/23 08:39:35;;;;;;;4.00;2.40;;;;;;;38.26;15.37;100286.89;104161;275;38244;-77
2023/05/23 08:42:10;;;;;;;2.80;2.30;;;;;;;38.38;15.57;100280.22;104163;275;38343;-75
2023/05/23 08:44:52;;;;;;;5.40;2.50;;;;;;;38.53;15.53;100278.42;104164;276;38637;-75
2023/05/23 08:47:28;;;;;;;3.00;2.10;;;;;;;38.68;15.07;100274.70;104014;277;38553;-77
2023/05/23 08:50:02;;;;;;;7.60;3.30;;;;;;;38.70;14.73;100280.33;104159;275;39729;-76
2023/05/23 08:52:36;;;;;;;3.90;2.30;;;;;;;38.62;14.40;100276.02;104208;275;38281;-75
2023/05/23 08:55:13;;;;;;;4.20;2.20;;;;;;;38.61;14.68;100270.31;104142;275;39417;-77
2023/05/23 08:57:47;;;;;;;2.50;2.00;;;;;;;38.54;15.08;100273.13;104167;271;38358;-77
2023/05/23 09:00:22;;;;;;;4.30;2.10;;;;;;;38.44;13.75;100273.95;104156;275;38616;-74
2023/05/23 09:02:56;;;;;;;3.70;2.10;;;;;;;37.72;13.84;100274.75;104161;276;38350;-76
2023/05/23 09:05:31;;;;;;;2.30;2.10;;;;;;;36.57;14.44;100266.14;104108;275;38289;-77
2023/05/23 09:08:06;;;;;;;2.30;2.10;;;;;;;35.55;15.73;100266.38;104156;275;39500;-76
2023/05/23 09:10:40;;;;;;;4.00;2.40;;;;;;;35.17;16.52;100262.91;103966;275;38505;-77
2023/05/23 09:13:14;;;;;;;2.70;1.90;;;;;;;35.11;16.73;100263.50;104157;275;38366;-77
2023/05/23 09:16:07;;;;;;;4.60;2.30;;;;;;;35.10;17.28;100264.73;104122;275;38406;-76
2023/05/23 09:18:43;;;;;;;3.30;2.20;;;;;;;34.94;17.69;100266.75;104178;275;38244;-76
2023/05/23 09:21:17;;;;;;;3.50;2.20;;;;;;;34.71;17.54;100262.91;104012;276;38720;-77
2023/05/23 09:23:51;;;;;;;4.00;2.00;;;;;;;34.23;17.32;100260.77;103996;275;38483;-74
2023/05/23 09:26:26;;;;;;;2.30;2.10;;;;;;;33.38;17.06;100257.92;104152;275;38257;-74
2023/05/23 09:29:04;;;;;;;5.10;2.70;;;;;;;32.44;16.99;100258.80;104167;275;39452;-75
2023/05/23 09:31:38;;;;;;;3.10;1.80;;;;;;;31.71;18.00;100259.52;103982;275;38253;-72
2023/05/23 09:34:13;;;;;;;3.90;2.30;;;;;;;31.24;19.01;100259.48;104175;275;39905;-73
2023/05/23 09:36:47;;;;;;;2.70;2.40;;;;;;;30.81;18.87;100264.22;104181;275;40066;-71
2023/05/23 09:39:21;;;;;;;4.60;2.00;;;;;;;30.58;19.61;100259.13;103983;277;38234;-72
2023/05/23 09:41:55;;;;;;;5.00;2.40;;;;;;;30.63;19.39;100253.70;104144;275;38221;-74
2023/05/23 09:44:30;;;;;;;4.10;2.10;;;;;;;30.51;19.61;100258.14;104161;275;38147;-74
2023/05/23 09:47:08;;;;;;;3.40;2.20;;;;;;;30.36;20.51;100257.90;104169;275;39668;-75
2023/05/23 09:49:45;;;;;;;3.70;2.10;;;;;;;30.20;19.79;100248.98;104181;275;38951;-74
2023/05/23 09:52:20;;;;;;;3.00;2.00;;;;;;;29.87;19.89;100240.52;104181;275;39401;-74
2023/05/23 09:54:54;;;;;;;3.30;2.40;;;;;;;29.73;20.17;100247.55;104110;275;38222;-74
2023/05/23 09:57:28;;;;;;;3.30;2.30;;;;;;;29.57;20.16;100244.91;104157;275;38804;-73
2023/05/23 10:00:05;;;;;;;2.70;1.90;;;;;;;29.19;20.21;100250.48;104143;275;38507;-74
2023/05/23 10:02:57;;;;;;;4.10;2.20;;;;;;;29.02;20.69;100252.10;104162;275;38290;-73
2023/05/23 10:05:41;;;;;;;5.10;2.20;;;;;;;28.74;21.00;100254.02;104019;277;38531;-74
2023/05/23 10:08:19;;;;;;;4.00;2.00;;;;;;;28.63;21.62;100242.99;104033;277;38400;-73
2023/05/23 10:11:37;;;;;;;3.40;2.10;;;;;;;28.55;21.26;100248.19;104035;277;38517;-72
2023/05/23 10:14:12;;;;;;;6.50;2.10;;;;;;;28.24;21.40;100249.86;104027;277;38731;-73
2023/05/23 10:16:58;;;;;;;4.20;2.40;;;;;;;28.17;21.51;100251.20;104032;277;38263;-74
2023/05/23 10:19:38;;;;;;;3.50;2.10;;;;;;;28.21;21.54;100241.77;103994;277;38674;-74
2023/05/23 10:22:16;;;;;;;2.40;2.20;;;;;;;28.15;21.80;100239.70;103996;277;38820;-71
2023/05/23 10:24:49;;;;;;;2.80;2.20;;;;;;;28.14;21.79;100233.34;104012;277;38775;-72
2023/05/23 10:27:23;;;;;;;4.10;2.10;;;;;;;27.96;22.14;100235.69;104041;276;39086;-75
2023/05/23 10:29:58;;;;;;;2.80;2.20;;;;;;;27.73;22.72;100232.63;104080;277;38272;-75
2023/05/23 10:32:32;;;;;;;3.30;2.20;;;;;;;27.60;22.48;100222.95;103997;277;38838;-73
2023/05/23 10:35:11;;;;;;;2.50;2.20;;;;;;;27.68;23.22;100232.98;104051;277;38855;-72
2023/05/23 10:37:49;;;;;;;3.50;2.10;;;;;;;27.75;23.78;100227.23;104133;277;38477;-74
2023/05/23 10:40:28;;;;;;;3.80;2.30;;;;;;;27.73;23.32;100230.86;104055;277;39489;-73
2023/05/23 10:43:06;;;;;;;2.60;2.20;;;;;;;27.66;22.64;100235.21;104050;277;38477;-75
2023/05/23 10:45:45;;;;;;;4.30;2.40;;;;;;;27.62;22.34;100234.61;104013;277;38952;-74
2023/05/23 10:48:35;;;;;;;3.10;2.40;;;;;;;27.59;22.72;100232.57;104023;277;38262;-72
2023/05/23 10:51:10;;;;;;;3.20;2.10;;;;;;;27.74;22.84;100236.73;104029;277;38363;-73
2023/05/23 10:53:46;;;;;;;2.80;2.20;;;;;;;27.81;22.79;100234.63;104003;277;38233;-72
2023/05/23 10:56:24;;;;;;;2.50;2.00;;;;;;;27.93;22.81;100229.52;104055;277;38856;-73
2023/05/23 10:58:59;;;;;;;4.30;2.00;;;;;;;28.08;22.24;100221.40;103881;277;39434;-73
2023/05/23 11:01:33;;;;;;;3.30;2.20;;;;;;;27.95;22.14;100218.30;104077;277;38478;-73
2023/05/23 11:04:12;;;;;;;3.40;2.10;;;;;;;27.88;22.61;100222.54;104121;276;38262;-73
2023/05/23 11:06:48;;;;;;;4.80;2.30;;;;;;;27.99;22.49;100218.42;103966;275;174315;-73
2023/05/23 11:09:22;;;;;;;4.90;2.00;;;;;;;27.96;22.49;100215.20;104146;275;39201;-73
2023/05/23 11:12:07;;;;;;;4.30;1.90;;;;;;;28.03;22.63;100213.29;104168;275;38375;-74
2023/05/23 11:14:56;;;;;;;2.60;2.10;;;;;;;28.12;22.78;100211.33;104144;275;38273;-71
2023/05/23 11:17:39;;;;;;;5.40;2.50;;;;;;;28.19;22.92;100208.77;104144;275;38628;-74
2023/05/23 11:20:15;;;;;;;4.10;2.30;;;;;;;27.90;22.65;100217.81;104175;275;40081;-75
2023/05/23 11:22:59;;;;;;;3.20;2.10;;;;;;;27.51;22.75;100213.91;104163;275;39372;-73
2023/05/23 11:25:48;;;;;;;2.60;2.30;;;;;;;27.29;23.51;100208.02;104143;275;38629;-73
2023/05/23 11:28:22;;;;;;;3.10;2.30;;;;;;;27.29;23.70;100207.50;104178;275;39801;-72
2023/05/23 11:30:59;;;;;;;3.50;2.20;;;;;;;27.36;23.86;100205.77;104091;275;38293;-73
2023/05/23 11:33:33;;;;;;;3.70;2.10;;;;;;;27.41;23.64;100199.66;104192;276;38436;-72
2023/05/23 11:36:08;;;;;;;4.30;2.20;;;;;;;27.37;23.69;100202.49;104175;275;38523;-74
2023/05/23 11:38:43;;;;;;;3.20;2.40;;;;;;;27.32;23.85;100196.34;104165;276;39692;-77
2023/05/23 11:41:17;;;;;;;3.10;2.50;;;;;;;27.37;23.92;100199.20;104148;275;38563;-74
2023/05/23 11:43:55;;;;;;;2.60;2.30;;;;;;;27.38;23.82;100200.00;104181;275;38737;-73
2023/05/23 11:46:28;;;;;;;2.60;2.20;;;;;;;27.35;23.83;100194.98;104169;275;38871;-73
2023/05/23 11:49:02;;;;;;;3.00;2.30;;;;;;;27.27;24.26;100186.89;104150;275;39407;-72
2023/05/23 11:51:36;;;;;;;4.60;2.40;;;;;;;27.29;24.37;100189.34;103708;276;451601;-75
2023/05/23 11:54:10;;;;;;;3.40;2.70;;;;;;;27.27;24.42;100185.48;104102;275;39478;-74
2023/05/23 11:56:46;;;;;;;5.50;2.50;;;;;;;27.25;24.42;100187.42;104146;275;38562;-73
2023/05/23 11:59:20;;;;;;;5.90;2.20;;;;;;;27.19;24.45;100182.64;104177;275;40101;-73
2023/05/23 12:01:55;;;;;;;3.20;2.30;;;;;;;27.13;24.49;100185.06;103996;277;38399;-73
2023/05/23 12:04:30;;;;;;;4.20;2.80;;;;;;;27.13;24.31;100183.40;104138;275;38673;-72
2023/05/23 12:07:07;;;;;;;5.90;2.50;;;;;;;27.11;24.29;100178.98;104187;275;38255;-73
2023/05/23 12:09:49;;;;;;;2.60;2.40;;;;;;;27.09;24.35;100175.16;104038;276;39872;-72